Time;durP1;ratioP1;P1;durP2;ratioP2;P2;SDS_P1;SDS_P2;PMS_P1;PMS_P2;Temp;Humidity;BMP_temperature;BMP_pressure;BME280_temperature;BME280_humidity;BME280_pressure;Samples;Min_cycle;Max_cycle;Signal;HPM_P1;HPM_P2
2022/04/30 00:00:58;;;;;;;6.15;3.97;;;;;;;;;;5022500;28;20054;-83
2022/04/30 00:03:26;;;;;;;5.50;3.80;;;;;;;;;;5006934;28;20103;-84
2022/04/30 00:05:52;;;;;;;4.20;3.80;;;;;;;;;;5027933;28;20057;-84
2022/04/30 00:08:18;;;;;;;5.47;4.28;;;;;;;;;;5031162;28;20052;-84
2022/04/30 00:10:44;;;;;;;5.35;4.47;;;;;;;;;;5023283;28;20046;-83
2022/04/30 00:13:10;;;;;;;6.63;4.13;;;;;;;;;;5001390;28;20037;-84
2022/04/30 00:15:37;;;;;;;4.40;3.90;;;;;;;;;;5019556;28;20045;-84
2022/04/30 00:18:03;;;;;;;5.97;4.45;;;;;;;;;;5031481;28;20056;-83
2022/04/30 00:20:29;;;;;;;7.80;3.85;;;;;;;;;;5026608;28;20143;-84
2022/04/30 00:22:56;;;;;;;6.82;3.80;;;;;;;;;;5025032;28;20088;-83
2022/04/30 00:25:23;;;;;;;4.93;3.70;;;;;;;;;;5015865;28;20042;-84
2022/04/30 00:27:49;;;;;;;4.35;3.95;;;;;;;;;;5021165;28;20057;-83
2022/04/30 00:30:15;;;;;;;4.72;3.63;;;;;;;;;;5012559;28;20188;-83
2022/04/30 00:32:42;;;;;;;4.78;3.65;;;;;;;;;;5009758;28;20499;-83
2022/04/30 00:35:08;;;;;;;4.72;3.67;;;;;;;;;;5006552;28;20089;-83
2022/04/30 00:37:34;;;;;;;5.63;3.22;;;;;;;;;;5022949;28;20421;-83
2022/04/30 00:40:02;;;;;;;5.38;3.58;;;;;;;;;;5030079;28;20479;-83
2022/04/30 00:42:28;;;;;;;6.15;3.63;;;;;;;;;;5008985;28;20053;-83
2022/04/30 00:44:54;;;;;;;6.03;3.30;;;;;;;;;;5021884;28;20060;-82
2022/04/30 00:47:21;;;;;;;4.28;3.70;;;;;;;;;;5025460;28;20041;-83
2022/04/30 00:49:47;;;;;;;5.32;3.10;;;;;;;;;;5007162;28;20179;-84
2022/04/30 00:52:14;;;;;;;3.75;3.40;;;;;;;;;;5022683;28;20089;-83
2022/04/30 00:54:41;;;;;;;6.43;3.65;;;;;;;;;;5026903;28;20049;-83
2022/04/30 00:57:09;;;;;;;5.28;3.22;;;;;;;;;;5027542;28;20049;-82
2022/04/30 00:59:39;;;;;;;7.40;3.88;;;;;;;;;;5023516;28;20037;-83
2022/04/30 01:02:05;;;;;;;5.15;3.60;;;;;;;;;;5005499;28;20041;-83
2022/04/30 01:04:31;;;;;;;7.40;3.70;;;;;;;;;;5030670;28;20049;-83
2022/04/30 01:07:00;;;;;;;5.15;3.55;;;;;;;;;;5027080;28;20049;-84
2022/04/30 01:09:28;;;;;;;4.18;3.53;;;;;;;;;;5012714;28;20050;-84
2022/04/30 01:11:58;;;;;;;5.18;3.53;;;;;;;;;;5008633;28;20054;-84
2022/04/30 01:14:31;;;;;;;4.53;3.45;;;;;;;;;;5030992;28;20045;-84
2022/04/30 01:16:59;;;;;;;7.07;3.83;;;;;;;;;;5023951;28;20687;-84
2022/04/30 01:19:27;;;;;;;5.00;3.40;;;;;;;;;;5025595;28;20045;-84
2022/04/30 01:21:56;;;;;;;6.38;3.45;;;;;;;;;;5027050;28;20045;-84
2022/04/30 01:24:22;;;;;;;4.95;3.58;;;;;;;;;;5025938;28;20115;-84
2022/04/30 01:26:51;;;;;;;4.28;3.58;;;;;;;;;;5026659;28;20042;-84
2022/04/30 01:29:18;;;;;;;5.82;3.65;;;;;;;;;;5013542;28;20060;-83
2022/04/30 01:37:24;;;;;;;4.72;3.90;;;;;;;;;;5019043;28;20046;-84
2022/04/30 01:39:53;;;;;;;4.78;3.75;;;;;;;;;;5029273;28;20052;-84
2022/04/30 01:42:19;;;;;;;5.68;3.55;;;;;;;;;;5025329;28;20042;-84
2022/04/30 01:44:46;;;;;;;6.72;3.50;;;;;;;;;;4999734;28;20390;-83
2022/04/30 01:47:14;;;;;;;5.68;3.50;;;;;;;;;;5021322;28;20053;-83
2022/04/30 01:49:40;;;;;;;5.18;3.63;;;;;;;;;;5019157;28;20496;-84
2022/04/30 01:52:07;;;;;;;4.97;3.45;;;;;;;;;;5016771;28;20272;-84
2022/04/30 01:54:33;;;;;;;4.25;3.72;;;;;;;;;;5025598;28;20111;-83
2022/04/30 01:57:01;;;;;;;6.30;3.30;;;;;;;;;;5011131;28;20053;-84
2022/04/30 01:59:28;;;;;;;6.35;3.65;;;;;;;;;;5019766;28;20037;-84
2022/04/30 02:01:54;;;;;;;3.65;3.35;;;;;;;;;;5017842;28;20417;-84
2022/04/30 02:04:20;;;;;;;5.10;3.63;;;;;;;;;;5023095;28;20037;-84
2022/04/30 02:06:46;;;;;;;5.90;4.32;;;;;;;;;;5007921;28;20103;-84
2022/04/30 02:09:14;;;;;;;6.38;3.78;;;;;;;;;;5011825;28;20132;-84
2022/04/30 02:11:40;;;;;;;6.00;3.88;;;;;;;;;;5006996;28;20135;-83
2022/04/30 02:14:08;;;;;;;3.72;3.40;;;;;;;;;;5009666;28;20493;-83
2022/04/30 02:16:34;;;;;;;4.63;4.00;;;;;;;;;;5012061;28;20057;-84
2022/04/30 02:19:02;;;;;;;3.95;3.53;;;;;;;;;;5008246;28;20133;-85
2022/04/30 02:21:30;;;;;;;4.38;3.47;;;;;;;;;;5029252;28;20220;-84
2022/04/30 02:23:58;;;;;;;6.07;3.63;;;;;;;;;;5029682;28;20041;-84
2022/04/30 02:26:27;;;;;;;5.18;3.75;;;;;;;;;;5027734;28;20120;-84
2022/04/30 02:28:57;;;;;;;4.57;3.35;;;;;;;;;;5012846;28;20385;-84
2022/04/30 02:31:23;;;;;;;6.68;4.00;;;;;;;;;;5016198;28;20493;-84
2022/04/30 02:33:49;;;;;;;6.15;3.42;;;;;;;;;;5029178;28;20087;-84
2022/04/30 02:36:15;;;;;;;5.53;3.92;;;;;;;;;;5030428;28;20045;-83
2022/04/30 02:38:41;;;;;;;5.50;3.80;;;;;;;;;;5022794;28;20038;-84
2022/04/30 02:41:08;;;;;;;5.53;3.80;;;;;;;;;;5010051;28;20381;-83
2022/04/30 02:43:34;;;;;;;5.57;3.97;;;;;;;;;;5025617;28;20041;-83
2022/04/30 02:46:00;;;;;;;8.10;4.28;;;;;;;;;;5028328;28;20041;-83
2022/04/30 02:48:26;;;;;;;5.22;3.72;;;;;;;;;;5023760;28;20374;-84
2022/04/30 02:50:58;;;;;;;5.57;3.85;;;;;;;;;;5007368;28;20069;-84
2022/04/30 02:53:24;;;;;;;4.40;4.00;;;;;;;;;;5027778;28;20093;-84
2022/04/30 02:55:50;;;;;;;6.63;3.95;;;;;;;;;;5026534;28;20107;-84
2022/04/30 03:01:00;;;;;;;5.75;4.20;;;;;;;;;;5013805;28;20049;-83
2022/04/30 03:03:29;;;;;;;6.88;4.03;;;;;;;;;;5032641;28;20086;-84
2022/04/30 03:05:56;;;;;;;4.32;3.88;;;;;;;;;;5031944;28;20133;-84
2022/04/30 03:08:23;;;;;;;6.22;4.63;;;;;;;;;;5031417;28;20054;-84
2022/04/30 03:10:50;;;;;;;5.70;4.45;;;;;;;;;;5017639;28;20124;-84
2022/04/30 03:13:19;;;;;;;5.35;4.63;;;;;;;;;;5006696;28;20065;-84
2022/04/30 03:15:47;;;;;;;7.22;4.65;;;;;;;;;;5019942;28;20053;-84
2022/04/30 03:23:51;;;;;;;6.93;5.00;;;;;;;;;;5013974;28;20049;-84
2022/04/30 03:26:20;;;;;;;6.30;4.40;;;;;;;;;;5008091;28;20057;-83
2022/04/30 03:28:46;;;;;;;6.85;5.15;;;;;;;;;;5027901;28;20042;-84
2022/04/30 03:31:15;;;;;;;6.97;5.45;;;;;;;;;;5032125;28;20037;-84
2022/04/30 03:33:44;;;;;;;6.82;5.30;;;;;;;;;;5028556;28;20125;-84
2022/04/30 03:36:15;;;;;;;6.57;5.13;;;;;;;;;;5031740;28;20123;-84
2022/04/30 03:38:41;;;;;;;6.80;5.63;;;;;;;;;;5030159;28;20053;-84
2022/04/30 03:41:07;;;;;;;7.05;6.00;;;;;;;;;;5018927;28;20401;-84
2022/04/30 03:43:33;;;;;;;8.82;6.18;;;;;;;;;;5009756;28;20121;-84
2022/04/30 03:45:59;;;;;;;7.00;5.95;;;;;;;;;;5027958;28;20129;-83
2022/04/30 03:48:25;;;;;;;7.40;5.75;;;;;;;;;;5030312;28;20091;-84
2022/04/30 03:50:52;;;;;;;7.75;6.13;;;;;;;;;;5027206;28;20050;-83
2022/04/30 03:53:18;;;;;;;7.97;6.32;;;;;;;;;;5009554;28;20089;-83
2022/04/30 03:55:44;;;;;;;7.35;5.88;;;;;;;;;;4995680;28;20064;-83
2022/04/30 03:58:10;;;;;;;8.93;6.15;;;;;;;;;;5026251;28;20405;-83
2022/04/30 04:00:36;;;;;;;10.18;6.30;;;;;;;;;;5010145;28;20107;-83
2022/04/30 04:03:03;;;;;;;9.25;6.07;;;;;;;;;;5031358;28;20111;-83
2022/04/30 04:05:29;;;;;;;8.93;6.40;;;;;;;;;;5013654;28;20049;-84
2022/04/30 04:08:00;;;;;;;6.65;5.78;;;;;;;;;;5030053;28;20050;-83
2022/04/30 04:10:27;;;;;;;9.85;6.47;;;;;;;;;;5027713;28;20056;-84
2022/04/30 04:17:37;;;;;;;6.95;5.97;;;;;;;;;;5021005;28;20045;-83
2022/04/30 04:18:23;;;;;;;6.68;5.70;;;;;;;;;;5013086;28;20137;-84
2022/04/30 04:20:49;;;;;;;8.20;6.45;;;;;;;;;;5011366;28;20053;-84
2022/04/30 04:23:15;;;;;;;9.25;6.68;;;;;;;;;;5025062;28;20056;-83
2022/04/30 04:26:00;;;;;;;9.20;6.57;;;;;;;;;;5026701;28;20111;-84
2022/04/30 04:28:26;;;;;;;8.10;6.13;;;;;;;;;;5004477;28;20445;-84
2022/04/30 04:30:52;;;;;;;11.82;6.47;;;;;;;;;;5027076;28;20056;-83
2022/04/30 04:33:18;;;;;;;7.45;6.35;;;;;;;;;;5023621;28;20187;-84
2022/04/30 04:35:44;;;;;;;12.10;6.82;;;;;;;;;;5022031;28;20042;-84
2022/04/30 04:38:10;;;;;;;10.77;6.68;;;;;;;;;;5013118;28;20046;-84
2022/04/30 04:40:36;;;;;;;9.57;6.78;;;;;;;;;;5006349;28;20137;-84
2022/04/30 04:43:02;;;;;;;7.57;6.30;;;;;;;;;;5028651;28;20048;-83
2022/04/30 04:45:28;;;;;;;10.80;6.80;;;;;;;;;;5016176;28;20045;-83
2022/04/30 04:47:55;;;;;;;10.45;7.00;;;;;;;;;;5012002;28;20072;-83
2022/04/30 04:50:25;;;;;;;11.80;7.80;;;;;;;;;;5028709;28;20045;-83
2022/04/30 04:52:51;;;;;;;10.32;7.03;;;;;;;;;;5019265;28;20089;-83
2022/04/30 04:55:17;;;;;;;8.95;6.85;;;;;;;;;;5017703;28;20472;-82
2022/04/30 04:57:44;;;;;;;7.35;6.45;;;;;;;;;;5026008;28;20066;-83
2022/04/30 05:00:10;;;;;;;10.57;7.07;;;;;;;;;;5017552;28;20081;-82
2022/04/30 05:02:37;;;;;;;8.02;5.53;;;;;;;;;;5033089;28;20152;-84
2022/04/30 05:05:03;;;;;;;5.45;4.95;;;;;;;;;;5024575;28;20124;-83
2022/04/30 05:07:29;;;;;;;5.10;4.60;;;;;;;;;;5013198;28;20428;-83
2022/04/30 05:09:55;;;;;;;4.53;3.90;;;;;;;;;;5011555;28;20046;-83
2022/04/30 05:12:21;;;;;;;5.65;4.88;;;;;;;;;;5007601;28;20092;-83
2022/04/30 05:14:48;;;;;;;6.25;4.60;;;;;;;;;;5021558;28;20100;-83
2022/04/30 05:17:15;;;;;;;7.85;5.38;;;;;;;;;;5025963;28;20064;-83
2022/04/30 05:19:41;;;;;;;5.88;5.28;;;;;;;;;;5025367;28;20462;-84
2022/04/30 05:22:07;;;;;;;7.50;6.00;;;;;;;;;;5013080;28;20071;-83
2022/04/30 05:24:33;;;;;;;7.57;5.50;;;;;;;;;;5008135;28;20482;-83
2022/04/30 05:27:01;;;;;;;6.57;4.93;;;;;;;;;;5026916;28;20072;-83
2022/04/30 05:29:27;;;;;;;7.07;5.00;;;;;;;;;;5025693;28;20355;-84
2022/04/30 05:31:53;;;;;;;7.05;5.47;;;;;;;;;;5007667;28;20088;-84
2022/04/30 05:34:19;;;;;;;6.70;5.20;;;;;;;;;;5012089;28;20037;-84
2022/04/30 05:36:45;;;;;;;7.97;5.97;;;;;;;;;;5008758;28;20076;-84
2022/04/30 05:39:11;;;;;;;7.18;5.63;;;;;;;;;;5001951;28;20045;-85
2022/04/30 05:41:37;;;;;;;6.40;5.40;;;;;;;;;;5006074;28;20061;-84
2022/04/30 05:44:03;;;;;;;8.73;5.57;;;;;;;;;;5000431;28;20041;-84
2022/04/30 05:46:29;;;;;;;6.18;5.32;;;;;;;;;;5021696;28;20089;-84
2022/04/30 05:48:58;;;;;;;8.48;5.40;;;;;;;;;;5007778;28;20041;-84
2022/04/30 05:51:24;;;;;;;6.05;5.45;;;;;;;;;;5029971;28;20037;-84
2022/04/30 05:53:50;;;;;;;7.80;4.90;;;;;;;;;;5024998;28;20053;-84
2022/04/30 05:56:16;;;;;;;6.22;4.93;;;;;;;;;;5022946;28;20080;-84
2022/04/30 05:58:42;;;;;;;5.32;4.63;;;;;;;;;;5019031;28;20089;-84
2022/04/30 06:01:09;;;;;;;6.75;5.05;;;;;;;;;;5026259;28;20509;-84
2022/04/30 06:03:35;;;;;;;7.05;4.70;;;;;;;;;;5023850;28;20111;-83
2022/04/30 06:06:01;;;;;;;5.25;4.53;;;;;;;;;;5028729;28;20370;-84
2022/04/30 06:08:27;;;;;;;5.05;4.45;;;;;;;;;;5029898;28;20588;-84
2022/04/30 06:10:53;;;;;;;4.50;4.10;;;;;;;;;;5026565;28;20120;-84
2022/04/30 06:13:19;;;;;;;4.10;3.70;;;;;;;;;;5026391;28;20378;-85
2022/04/30 06:15:45;;;;;;;4.10;3.70;;;;;;;;;;5024370;28;20084;-83
2022/04/30 06:18:11;;;;;;;5.35;4.03;;;;;;;;;;5027508;28;20044;-83
2022/04/30 06:20:37;;;;;;;4.72;3.50;;;;;;;;;;5024710;28;20041;-83
2022/04/30 06:23:03;;;;;;;4.82;3.55;;;;;;;;;;5023937;28;20061;-83
2022/04/30 06:25:29;;;;;;;4.82;3.60;;;;;;;;;;5019885;28;20476;-84
2022/04/30 06:27:55;;;;;;;3.65;3.30;;;;;;;;;;5022829;28;20427;-84
2022/04/30 06:30:21;;;;;;;3.70;3.20;;;;;;;;;;5015347;28;20060;-83
2022/04/30 06:32:47;;;;;;;4.55;3.70;;;;;;;;;;5030584;28;21023;-83
2022/04/30 06:35:16;;;;;;;3.97;3.63;;;;;;;;;;5032092;28;20500;-83
2022/04/30 06:37:42;;;;;;;3.92;3.60;;;;;;;;;;5015089;28;20053;-83
2022/04/30 06:40:08;;;;;;;4.13;3.72;;;;;;;;;;5021744;28;20373;-83
2022/04/30 06:42:40;;;;;;;3.95;3.63;;;;;;;;;;5028891;28;20052;-83
2022/04/30 06:45:06;;;;;;;4.03;3.63;;;;;;;;;;5028249;28;20042;-83
2022/04/30 06:47:32;;;;;;;3.67;3.33;;;;;;;;;;5028952;28;20045;-83
2022/04/30 06:49:58;;;;;;;6.38;4.00;;;;;;;;;;5011528;28;20056;-83
2022/04/30 06:52:25;;;;;;;4.22;3.70;;;;;;;;;;5023898;28;20058;-84
2022/04/30 06:57:35;;;;;;;4.78;3.83;;;;;;;;;;5009418;28;20104;-83
2022/04/30 07:01:24;;;;;;;4.75;3.80;;;;;;;;;;5033222;28;20050;-83
2022/04/30 07:02:47;;;;;;;5.03;4.50;;;;;;;;;;5013723;28;20041;-84
2022/04/30 07:05:13;;;;;;;4.25;3.85;;;;;;;;;;5030886;28;20381;-83
2022/04/30 07:07:39;;;;;;;7.18;3.88;;;;;;;;;;5027053;28;20041;-83
2022/04/30 07:10:05;;;;;;;4.55;3.35;;;;;;;;;;5013745;28;20126;-84
2022/04/30 07:12:31;;;;;;;3.80;3.35;;;;;;;;;;5012489;28;20037;-84
2022/04/30 07:14:57;;;;;;;3.90;3.50;;;;;;;;;;5030099;28;20136;-83
2022/04/30 07:17:23;;;;;;;4.55;3.80;;;;;;;;;;5025753;28;20037;-84
2022/04/30 07:19:49;;;;;;;4.72;3.38;;;;;;;;;;5025554;28;20041;-84
2022/04/30 07:22:15;;;;;;;4.60;3.85;;;;;;;;;;5022608;28;20478;-84
2022/04/30 07:24:41;;;;;;;6.22;3.80;;;;;;;;;;5033509;28;20124;-84
2022/04/30 07:27:08;;;;;;;5.53;3.85;;;;;;;;;;5011935;28;20053;-84
2022/04/30 07:29:38;;;;;;;4.60;3.70;;;;;;;;;;5032278;28;20095;-84
2022/04/30 07:32:07;;;;;;;4.32;3.85;;;;;;;;;;5024854;28;20056;-83
2022/04/30 07:34:33;;;;;;;5.15;4.30;;;;;;;;;;5027675;28;20042;-82
2022/04/30 07:36:59;;;;;;;6.32;4.45;;;;;;;;;;5014604;28;20073;-84
2022/04/30 07:39:25;;;;;;;6.90;4.72;;;;;;;;;;5025474;28;20120;-83
2022/04/30 07:41:55;;;;;;;9.13;5.40;;;;;;;;;;5009562;28;20050;-83
2022/04/30 07:44:22;;;;;;;6.80;4.53;;;;;;;;;;5025411;28;20042;-84
2022/04/30 07:46:48;;;;;;;6.15;4.28;;;;;;;;;;5027397;28;20038;-83
2022/04/30 07:49:14;;;;;;;4.78;4.10;;;;;;;;;;5011718;28;20508;-84
2022/04/30 07:51:52;;;;;;;3.88;3.45;;;;;;;;;;5028669;28;20052;-83
2022/04/30 07:54:18;;;;;;;3.92;3.63;;;;;;;;;;5023462;28;20045;-82
2022/04/30 07:56:44;;;;;;;4.05;2.92;;;;;;;;;;5017891;28;20485;-83
2022/04/30 07:59:10;;;;;;;3.72;2.63;;;;;;;;;;5028540;28;20099;-81
2022/04/30 08:01:36;;;;;;;3.47;2.55;;;;;;;;;;5011940;28;20041;-82
2022/04/30 08:04:02;;;;;;;4.57;2.60;;;;;;;;;;5007766;28;20140;-82
2022/04/30 08:06:28;;;;;;;2.53;2.35;;;;;;;;;;5022113;28;20494;-82
2022/04/30 08:08:54;;;;;;;2.63;2.40;;;;;;;;;;5027356;28;20040;-85
2022/04/30 08:11:20;;;;;;;2.80;2.60;;;;;;;;;;5013756;28;20060;-84
2022/04/30 08:13:46;;;;;;;4.65;2.85;;;;;;;;;;5000094;28;20053;-83
2022/04/30 08:16:12;;;;;;;2.65;2.45;;;;;;;;;;5016440;28;20053;-83
2022/04/30 08:18:39;;;;;;;2.60;2.40;;;;;;;;;;5009056;28;20443;-84
2022/04/30 08:21:05;;;;;;;3.67;2.30;;;;;;;;;;5009420;28;20084;-82
2022/04/30 08:23:33;;;;;;;2.50;2.30;;;;;;;;;;5009111;28;20453;-81
2022/04/30 08:25:59;;;;;;;2.75;2.50;;;;;;;;;;5010682;28;20053;-84
2022/04/30 08:28:25;;;;;;;4.40;3.38;;;;;;;;;;5011558;28;20623;-84
2022/04/30 08:30:51;;;;;;;3.20;2.90;;;;;;;;;;5023135;28;20072;-84
2022/04/30 08:33:17;;;;;;;4.07;2.75;;;;;;;;;;5024440;28;20475;-85
2022/04/30 08:35:43;;;;;;;3.42;2.33;;;;;;;;;;5018506;28;20570;-84
2022/04/30 08:38:10;;;;;;;3.83;2.60;;;;;;;;;;5025441;28;20120;-84
2022/04/30 08:40:36;;;;;;;3.65;2.80;;;;;;;;;;5010265;28;20593;-84
2022/04/30 08:43:07;;;;;;;3.80;2.60;;;;;;;;;;5019816;28;20056;-85
2022/04/30 08:45:36;;;;;;;3.70;2.58;;;;;;;;;;5020808;28;20493;-84
2022/04/30 08:48:04;;;;;;;5.97;2.97;;;;;;;;;;5003356;28;20096;-84
2022/04/30 08:50:30;;;;;;;2.92;2.72;;;;;;;;;;5019454;28;20076;-86
2022/04/30 08:52:57;;;;;;;5.28;2.90;;;;;;;;;;5005258;28;20080;-84
2022/04/30 08:55:23;;;;;;;3.13;2.53;;;;;;;;;;5005934;28;20072;-83
2022/04/30 08:57:49;;;;;;;4.18;2.88;;;;;;;;;;5024412;28;20045;-83
2022/04/30 09:00:15;;;;;;;3.80;2.97;;;;;;;;;;5022127;28;20128;-83
2022/04/30 09:02:51;;;;;;;4.05;2.92;;;;;;;;;;5004839;28;20047;-83
2022/04/30 09:05:18;;;;;;;3.40;3.03;;;;;;;;;;5018373;28;20056;-83
2022/04/30 09:07:52;;;;;;;6.57;3.33;;;;;;;;;;5020952;28;20362;-83
2022/04/30 09:10:21;;;;;;;5.72;2.88;;;;;;;;;;5001973;28;20168;-83
2022/04/30 09:12:47;;;;;;;3.60;3.13;;;;;;;;;;5023205;28;20493;-84
2022/04/30 09:15:16;;;;;;;3.53;2.75;;;;;;;;;;5020261;28;20049;-82
2022/04/30 09:17:42;;;;;;;3.83;2.45;;;;;;;;;;5022306;28;20042;-83
2022/04/30 09:20:13;;;;;;;4.82;2.80;;;;;;;;;;5008555;28;20384;-83
2022/04/30 09:22:39;;;;;;;3.47;2.70;;;;;;;;;;5003134;28;20053;-82
2022/04/30 09:25:09;;;;;;;2.90;2.60;;;;;;;;;;5004348;28;20684;-81
2022/04/30 09:27:41;;;;;;;3.00;2.63;;;;;;;;;;5022707;28;20046;-83
2022/04/30 09:30:31;;;;;;;3.17;2.75;;;;;;;;;;5023125;28;20057;-82
2022/04/30 09:33:07;;;;;;;4.20;2.65;;;;;;;;;;5002314;28;20107;-83
2022/04/30 09:38:19;;;;;;;2.45;2.30;;;;;;;;;;5025634;28;20417;-84
2022/04/30 09:40:55;;;;;;;2.78;2.33;;;;;;;;;;5007388;28;20047;-83
2022/04/30 09:43:23;;;;;;;3.13;2.40;;;;;;;;;;5017526;28;20424;-84
2022/04/30 09:45:49;;;;;;;4.45;2.60;;;;;;;;;;5002480;28;20451;-83
2022/04/30 09:53:57;;;;;;;3.08;2.60;;;;;;;;;;5004993;28;20489;-83
2022/04/30 09:56:37;;;;;;;2.75;2.47;;;;;;;;;;5001353;28;20422;-83
2022/04/30 09:59:07;;;;;;;3.42;2.20;;;;;;;;;;5003385;28;20052;-83
2022/04/30 10:01:37;;;;;;;3.40;2.40;;;;;;;;;;4998394;28;20117;-83
2022/04/30 10:04:07;;;;;;;4.20;2.33;;;;;;;;;;5022398;28;20121;-83
2022/04/30 10:06:34;;;;;;;2.60;2.40;;;;;;;;;;5005400;28;20057;-84
2022/04/30 10:09:01;;;;;;;2.50;2.30;;;;;;;;;;5005572;28;20076;-83
2022/04/30 10:11:33;;;;;;;3.72;2.60;;;;;;;;;;5003978;28;20041;-84
2022/04/30 10:14:06;;;;;;;2.50;2.28;;;;;;;;;;5022351;28;20049;-84
2022/04/30 10:16:32;;;;;;;3.63;2.40;;;;;;;;;;5006006;28;20406;-84
2022/04/30 10:19:13;;;;;;;3.53;2.53;;;;;;;;;;5002730;28;20315;-84
2022/04/30 10:21:39;;;;;;;3.13;2.50;;;;;;;;;;5021531;28;20099;-83
2022/04/30 10:24:06;;;;;;;3.00;2.70;;;;;;;;;;5005057;28;20049;-83
2022/04/30 10:26:32;;;;;;;3.17;2.83;;;;;;;;;;5024421;28;20052;-84
2022/04/30 10:29:02;;;;;;;3.92;2.90;;;;;;;;;;5022720;28;20479;-84
2022/04/30 10:31:28;;;;;;;5.00;3.20;;;;;;;;;;5022420;28;20053;-84
2022/04/30 10:33:54;;;;;;;3.47;3.05;;;;;;;;;;5021299;28;20049;-83
2022/04/30 10:36:21;;;;;;;5.40;3.47;;;;;;;;;;5002178;28;20067;-84
2022/04/30 10:39:06;;;;;;;3.97;3.60;;;;;;;;;;5021249;28;20052;-83
2022/04/30 10:41:45;;;;;;;6.05;3.75;;;;;;;;;;5021134;28;20170;-84
2022/04/30 10:44:13;;;;;;;3.80;3.50;;;;;;;;;;5018695;28;20091;-85
2022/04/30 10:46:44;;;;;;;3.88;3.35;;;;;;;;;;5025402;28;20180;-84
2022/04/30 10:49:10;;;;;;;3.90;3.60;;;;;;;;;;5022646;28;20485;-84
2022/04/30 10:51:38;;;;;;;3.80;3.50;;;;;;;;;;5002436;28;20050;-83
2022/04/30 10:54:07;;;;;;;3.60;3.30;;;;;;;;;;5002847;28;20057;-83
2022/04/30 10:56:33;;;;;;;4.30;3.50;;;;;;;;;;5002489;28;20132;-83
2022/04/30 10:58:59;;;;;;;4.03;3.63;;;;;;;;;;5003263;28;20045;-83
2022/04/30 11:01:25;;;;;;;3.97;3.47;;;;;;;;;;5022361;28;20038;-84
2022/04/30 11:03:51;;;;;;;3.60;3.28;;;;;;;;;;5004850;28;20518;-83
2022/04/30 11:06:21;;;;;;;3.80;3.50;;;;;;;;;;5022838;28;20045;-84
2022/04/30 11:08:56;;;;;;;4.10;3.75;;;;;;;;;;5005382;28;20045;-84
2022/04/30 11:11:22;;;;;;;3.92;3.60;;;;;;;;;;5019606;28;20098;-83
2022/04/30 11:13:55;;;;;;;4.00;3.65;;;;;;;;;;5021967;28;20049;-83
2022/04/30 11:16:21;;;;;;;4.78;3.60;;;;;;;;;;5021443;28;20046;-83
2022/04/30 11:18:57;;;;;;;6.18;3.53;;;;;;;;;;5026499;28;20041;-84
2022/04/30 11:21:29;;;;;;;4.70;3.50;;;;;;;;;;5023379;28;20084;-84
2022/04/30 11:23:55;;;;;;;5.00;3.60;;;;;;;;;;5029518;28;20053;-84
2022/04/30 11:26:21;;;;;;;3.75;3.45;;;;;;;;;;5027438;28;20104;-84
2022/04/30 11:28:50;;;;;;;4.13;3.47;;;;;;;;;;5027960;28;20049;-83
2022/04/30 11:31:20;;;;;;;4.90;3.75;;;;;;;;;;5006285;28;20037;-84
2022/04/30 11:33:46;;;;;;;4.10;3.80;;;;;;;;;;5008674;28;20090;-85
2022/04/30 11:36:13;;;;;;;5.60;3.80;;;;;;;;;;5005687;28;20049;-84
2022/04/30 11:38:39;;;;;;;4.57;3.65;;;;;;;;;;5006551;28;20716;-85
2022/04/30 11:41:06;;;;;;;4.47;3.70;;;;;;;;;;5026213;28;20053;-85
2022/04/30 11:43:32;;;;;;;5.45;3.70;;;;;;;;;;5005165;28;20056;-83
2022/04/30 11:46:00;;;;;;;4.70;3.80;;;;;;;;;;5001156;28;20046;-84
2022/04/30 11:48:27;;;;;;;5.38;3.58;;;;;;;;;;5025707;28;20053;-84
2022/04/30 11:50:54;;;;;;;4.00;3.60;;;;;;;;;;5000840;28;20056;-83
2022/04/30 11:53:20;;;;;;;6.70;3.90;;;;;;;;;;5027211;28;20125;-83
2022/04/30 11:55:46;;;;;;;6.80;3.83;;;;;;;;;;5013426;28;20049;-82
2022/04/30 11:58:12;;;;;;;4.13;3.47;;;;;;;;;;5026259;28;20104;-83
2022/04/30 12:00:39;;;;;;;3.90;3.47;;;;;;;;;;5011862;28;20045;-82
2022/04/30 12:03:05;;;;;;;4.00;3.53;;;;;;;;;;5015896;28;20117;-83
2022/04/30 12:05:31;;;;;;;4.55;3.60;;;;;;;;;;5014816;28;20054;-80
2022/04/30 12:08:01;;;;;;;4.90;3.53;;;;;;;;;;5030347;28;20347;-79
2022/04/30 12:10:28;;;;;;;4.22;3.55;;;;;;;;;;5031361;28;20084;-76
2022/04/30 12:12:54;;;;;;;4.25;3.70;;;;;;;;;;5003064;28;20042;-77
2022/04/30 12:15:22;;;;;;;5.32;3.67;;;;;;;;;;5014036;28;20095;-82
2022/04/30 12:26:08;;;;;;;5.05;3.90;;;;;;;;;;5021836;28;20064;-84
2022/04/30 12:28:47;;;;;;;6.88;4.43;;;;;;;;;;5010234;28;20053;-84
2022/04/30 12:31:13;;;;;;;9.48;3.83;;;;;;;;;;5003062;28;20049;-84
2022/04/30 12:33:45;;;;;;;4.15;3.75;;;;;;;;;;5028048;28;20047;-82
2022/04/30 12:36:12;;;;;;;3.83;3.40;;;;;;;;;;5022745;28;20054;-77
2022/04/30 12:38:38;;;;;;;5.60;3.83;;;;;;;;;;5013181;28;20043;-84
2022/04/30 12:41:06;;;;;;;4.97;4.18;;;;;;;;;;5007491;28;20041;-82
2022/04/30 12:43:36;;;;;;;7.60;3.53;;;;;;;;;;5030523;28;20124;-81
2022/04/30 12:46:02;;;;;;;3.83;3.47;;;;;;;;;;5022700;28;20056;-81
2022/04/30 12:48:28;;;;;;;4.57;3.67;;;;;;;;;;5027164;28;20505;-81
2022/04/30 12:50:55;;;;;;;5.78;3.58;;;;;;;;;;5007525;28;20509;-83
2022/04/30 12:53:22;;;;;;;4.90;3.70;;;;;;;;;;5007240;28;20112;-82
2022/04/30 12:55:51;;;;;;;4.40;3.53;;;;;;;;;;4999790;28;20096;-81
2022/04/30 12:58:17;;;;;;;6.15;4.13;;;;;;;;;;5032466;28;20049;-83
2022/04/30 13:00:44;;;;;;;5.18;4.00;;;;;;;;;;5010337;28;20068;-80
2022/04/30 13:03:10;;;;;;;6.43;4.15;;;;;;;;;;5009303;28;20050;-83
2022/04/30 13:05:36;;;;;;;10.55;3.90;;;;;;;;;;5028831;28;20453;-85
2022/04/30 13:08:03;;;;;;;5.95;4.00;;;;;;;;;;5031291;28;20488;-85
2022/04/30 13:13:33;;;;;;;5.13;3.88;;;;;;;;;;5029353;28;20077;-86
2022/04/30 13:16:02;;;;;;;4.60;3.70;;;;;;;;;;5026019;28;20053;-85
2022/04/30 13:18:28;;;;;;;5.15;3.70;;;;;;;;;;5027248;28;20041;-86
2022/04/30 13:20:54;;;;;;;4.43;3.50;;;;;;;;;;5029888;28;20401;-86
2022/04/30 13:23:20;;;;;;;4.35;3.50;;;;;;;;;;5033067;28;20121;-86
2022/04/30 13:25:46;;;;;;;6.78;3.30;;;;;;;;;;5029705;28;20037;-86
2022/04/30 13:28:15;;;;;;;3.80;3.40;;;;;;;;;;5020256;28;20045;-86
2022/04/30 13:30:41;;;;;;;5.43;3.70;;;;;;;;;;5010582;28;20057;-86
2022/04/30 13:33:07;;;;;;;4.85;3.28;;;;;;;;;;5014217;28;20049;-85
2022/04/30 13:35:33;;;;;;;4.25;3.65;;;;;;;;;;5001659;28;20409;-86
2022/04/30 13:37:59;;;;;;;3.50;3.20;;;;;;;;;;5027526;28;20048;-85
2022/04/30 13:40:25;;;;;;;3.92;3.25;;;;;;;;;;5029161;28;20037;-86
2022/04/30 13:42:51;;;;;;;3.63;3.00;;;;;;;;;;5029362;28;20520;-86
2022/04/30 13:45:17;;;;;;;3.60;3.28;;;;;;;;;;5027385;28;20041;-85
2022/04/30 13:47:44;;;;;;;18.13;4.68;;;;;;;;;;5012290;28;20107;-85
2022/04/30 13:50:10;;;;;;;4.50;3.13;;;;;;;;;;5012644;28;20050;-85
2022/04/30 13:52:37;;;;;;;3.20;2.90;;;;;;;;;;5013653;28;20107;-84
2022/04/30 13:55:07;;;;;;;3.15;2.90;;;;;;;;;;5028766;28;20133;-85
2022/04/30 13:57:33;;;;;;;3.85;3.22;;;;;;;;;;5012893;28;20061;-84
2022/04/30 13:59:59;;;;;;;4.00;2.85;;;;;;;;;;5027482;28;20049;-85
2022/04/30 14:02:25;;;;;;;3.67;3.22;;;;;;;;;;5013645;28;20053;-86
2022/04/30 14:04:52;;;;;;;3.28;2.97;;;;;;;;;;5030350;28;20098;-85
2022/04/30 14:07:18;;;;;;;3.10;2.78;;;;;;;;;;5010095;28;20049;-86
2022/04/30 14:09:44;;;;;;;3.22;2.95;;;;;;;;;;5014636;28;20152;-87
2022/04/30 14:12:10;;;;;;;3.15;2.95;;;;;;;;;;5011881;28;20037;-86
2022/04/30 14:20:06;;;;;;;3.00;2.63;;;;;;;;;;5014383;28;20386;-86
2022/04/30 14:22:35;;;;;;;3.05;2.75;;;;;;;;;;5028748;28;20073;-86
2022/04/30 14:25:06;;;;;;;3.45;3.15;;;;;;;;;;5013364;28;20132;-86
2022/04/30 14:27:32;;;;;;;3.25;2.95;;;;;;;;;;5011222;28;20483;-86
2022/04/30 14:30:02;;;;;;;3.30;3.00;;;;;;;;;;5035135;28;20478;-85
2022/04/30 14:32:28;;;;;;;3.33;2.90;;;;;;;;;;5029303;28;20046;-86
2022/04/30 14:34:54;;;;;;;3.15;2.90;;;;;;;;;;5023836;28;20441;-86
2022/04/30 14:37:20;;;;;;;3.13;2.83;;;;;;;;;;5025720;28;20409;-86
2022/04/30 14:39:46;;;;;;;4.00;3.65;;;;;;;;;;5032079;28;20181;-86
2022/04/30 14:42:13;;;;;;;4.88;3.70;;;;;;;;;;5030341;28;20049;-87
2022/04/30 14:44:42;;;;;;;4.13;3.70;;;;;;;;;;5023975;28;20081;-87
2022/04/30 14:47:08;;;;;;;5.13;3.80;;;;;;;;;;5011633;28;20136;-86
2022/04/30 14:49:35;;;;;;;5.55;3.55;;;;;;;;;;5005208;28;20508;-85
2022/04/30 14:52:01;;;;;;;3.70;3.40;;;;;;;;;;5000630;28;20532;-87
2022/04/30 14:54:28;;;;;;;3.60;3.30;;;;;;;;;;5026802;28;20503;-86
2022/04/30 14:56:54;;;;;;;3.60;3.13;;;;;;;;;;5011717;28;20068;-87
2022/04/30 14:59:20;;;;;;;3.00;2.78;;;;;;;;;;5013708;28;20042;-87
2022/04/30 15:01:46;;;;;;;3.67;2.85;;;;;;;;;;5027361;28;20132;-86
2022/04/30 15:04:12;;;;;;;4.30;3.08;;;;;;;;;;5034461;28;20053;-86
2022/04/30 15:06:38;;;;;;;3.83;2.88;;;;;;;;;;5015256;28;20056;-83
2022/04/30 15:09:04;;;;;;;4.60;2.90;;;;;;;;;;5014871;28;20041;-85
2022/04/30 15:11:30;;;;;;;2.63;2.42;;;;;;;;;;5003729;28;20057;-83
2022/04/30 15:13:56;;;;;;;3.92;2.83;;;;;;;;;;5031202;28;20030;-84
2022/04/30 15:16:23;;;;;;;3.72;2.90;;;;;;;;;;5022548;28;20501;-83
2022/04/30 15:18:49;;;;;;;3.80;3.33;;;;;;;;;;5019552;28;20531;-83
2022/04/30 15:21:15;;;;;;;3.70;2.95;;;;;;;;;;5004649;28;20041;-82
2022/04/30 15:23:41;;;;;;;4.88;3.40;;;;;;;;;;5033278;28;20064;-82
2022/04/30 15:26:07;;;;;;;3.10;2.90;;;;;;;;;;5029416;28;20559;-82
2022/04/30 15:28:33;;;;;;;3.25;2.95;;;;;;;;;;5014322;28;20116;-83